createdAt,value
2023-03-11T00:00:55.448Z,97672.47
2023-03-11T00:03:25.667Z,97668.19
2023-03-11T00:05:53.535Z,97661.09
2023-03-11T00:08:24.859Z,97670.97
2023-03-11T00:10:55.331Z,97672.94
2023-03-11T00:13:22.101Z,97671.41
2023-03-11T00:15:51.809Z,97665.72
2023-03-11T00:18:18.853Z,97671.50
2023-03-11T00:20:46.859Z,97692.16
2023-03-11T00:23:14.863Z,97684.75
2023-03-11T00:25:43.906Z,97685.38
2023-03-11T00:28:11.211Z,97687.59
2023-03-11T00:30:39.243Z,97690.16
2023-03-11T00:33:06.698Z,97690.81
2023-03-11T00:35:34.158Z,97673.78
2023-03-11T00:38:03.409Z,97680.22
2023-03-11T00:40:31.510Z,97678.56
2023-03-11T00:42:58.441Z,97678.88
2023-03-11T00:45:25.857Z,97678.75
2023-03-11T00:47:53.427Z,97688.09
2023-03-11T00:50:23.204Z,97681.44
2023-03-11T00:52:50.551Z,97687.09
2023-03-11T00:55:21.880Z,97684.94
2023-03-11T00:57:51.265Z,97689.97
2023-03-11T01:00:20.327Z,97683.50
2023-03-11T01:02:46.999Z,97683.00
2023-03-11T01:05:14.551Z,97678.81
2023-03-11T01:07:41.785Z,97689.28
2023-03-11T01:10:09.477Z,97695.03
2023-03-11T01:12:36.138Z,97695.66
2023-03-11T01:15:03.817Z,97694.63
2023-03-11T01:17:30.387Z,97682.06
2023-03-11T01:19:56.933Z,97677.91
2023-03-11T01:22:23.706Z,97688.84
2023-03-11T01:24:50.247Z,97699.94
2023-03-11T01:27:16.985Z,97698.59
2023-03-11T01:29:43.475Z,97697.84
2023-03-11T01:32:11.200Z,97668.78
2023-03-11T01:34:37.853Z,97657.78
2023-03-11T01:37:04.454Z,97657.69
2023-03-11T01:39:31.041Z,97671.59
2023-03-11T01:41:58.008Z,97685.09
2023-03-11T01:44:24.596Z,97692.19
2023-03-11T01:46:54.176Z,97704.59
2023-03-11T01:49:22.318Z,97672.75
2023-03-11T01:51:52.138Z,97653.44
2023-03-11T01:54:25.905Z,97649.84
2023-03-11T01:56:53.155Z,97640.81
2023-03-11T01:59:23.998Z,97639.53
2023-03-11T02:02:04.797Z,97633.78
2023-03-11T02:04:34.392Z,97615.44
2023-03-11T02:07:02.045Z,97618.16
2023-03-11T02:09:28.546Z,97615.09
2023-03-11T02:11:56.435Z,97632.22
2023-03-11T02:14:24.697Z,97633.81
2023-03-11T02:16:51.262Z,97652.00
2023-03-11T02:19:32.298Z,97645.19
2023-03-11T02:21:59.413Z,97638.25
2023-03-11T02:24:30.931Z,97655.88
2023-03-11T02:27:01.544Z,97671.03
2023-03-11T02:29:29.343Z,97684.94
2023-03-11T02:32:01.495Z,97679.03
2023-03-11T02:34:30.881Z,97664.47
2023-03-11T02:36:59.064Z,97662.25
2023-03-11T02:39:34.271Z,97665.47
2023-03-11T02:42:04.756Z,97652.25
2023-03-11T02:44:31.548Z,97646.69
2023-03-11T02:46:58.130Z,97645.31
2023-03-11T02:49:24.724Z,97647.78
2023-03-11T02:51:52.262Z,97639.41
2023-03-11T02:54:18.785Z,97634.78
2023-03-11T02:56:45.297Z,97655.72
2023-03-11T02:59:11.761Z,97665.63
2023-03-11T03:01:38.247Z,97659.13
2023-03-11T03:04:05.057Z,97662.09
2023-03-11T03:06:31.621Z,97655.81
2023-03-11T03:08:58.175Z,97640.19
2023-03-11T03:11:24.713Z,97653.25
2023-03-11T03:13:51.254Z,97656.44
2023-03-11T03:16:18.021Z,97637.56
2023-03-11T03:18:44.619Z,97643.03
2023-03-11T03:21:11.201Z,97641.63
2023-03-11T03:23:37.875Z,97652.38
2023-03-11T03:26:05.888Z,97661.84
2023-03-11T03:28:32.836Z,97661.84
2023-03-11T03:31:07.643Z,97661.75
2023-03-11T03:33:34.173Z,97656.50
2023-03-11T03:36:01.058Z,97656.63
2023-03-11T03:38:27.615Z,97678.81
2023-03-11T03:40:54.308Z,97688.78
2023-03-11T03:43:20.861Z,97688.63
2023-03-11T03:45:58.604Z,97678.16
2023-03-11T03:48:25.391Z,97670.69
2023-03-11T03:50:51.946Z,97668.09
2023-03-11T03:53:18.906Z,97663.28
2023-03-11T03:55:45.614Z,97662.63
2023-03-11T03:58:12.405Z,97666.84
2023-03-11T04:00:39.574Z,97667.88
2023-03-11T04:03:06.895Z,97666.09
2023-03-11T04:05:33.557Z,97653.25
2023-03-11T04:08:00.669Z,97659.97
2023-03-11T04:10:27.357Z,97662.91
2023-03-11T04:12:53.831Z,97661.06
2023-03-11T04:15:20.471Z,97675.31
2023-03-11T04:17:47.006Z,97674.81
2023-03-11T04:20:13.535Z,97675.97
2023-03-11T04:22:40.097Z,97676.03
2023-03-11T04:25:07.208Z,97670.44
2023-03-11T04:27:33.875Z,97679.47
2023-03-11T04:30:00.383Z,97683.19
2023-03-11T04:32:27.089Z,97679.69
2023-03-11T04:34:53.720Z,97679.88
2023-03-11T04:37:20.202Z,97692.69
2023-03-11T04:39:46.851Z,97693.91
2023-03-11T04:42:14.244Z,97692.13
2023-03-11T04:44:40.762Z,97696.44
2023-03-11T04:47:07.377Z,97699.88
2023-03-11T04:49:33.908Z,97704.06
2023-03-11T04:52:00.444Z,97694.69
2023-03-11T04:54:26.986Z,97705.34
2023-03-11T04:56:53.660Z,97710.91
2023-03-11T04:59:20.163Z,97714.94
2023-03-11T05:01:46.740Z,97697.63
2023-03-11T05:04:13.301Z,97705.03
2023-03-11T05:06:39.802Z,97701.38
2023-03-11T05:09:06.551Z,97696.94
2023-03-11T05:11:33.038Z,97702.88
2023-03-11T05:13:59.563Z,97707.94
2023-03-11T05:16:26.136Z,97715.22
2023-03-11T05:18:52.596Z,97709.66
2023-03-11T05:21:19.051Z,97711.56
2023-03-11T05:23:45.602Z,97708.03
2023-03-11T05:26:12.471Z,97712.19
2023-03-11T05:28:41.936Z,97714.72
2023-03-11T05:31:11.496Z,97718.22
2023-03-11T05:33:38.027Z,97718.38
2023-03-11T05:36:09.183Z,97703.06
2023-03-11T05:38:37.218Z,97697.75
2023-03-11T05:41:04.073Z,97702.25
2023-03-11T05:43:30.658Z,97697.25
2023-03-11T05:45:57.143Z,97700.53
2023-03-11T05:48:23.698Z,97708.25
2023-03-11T05:50:50.256Z,97719.25
2023-03-11T05:53:16.762Z,97701.47
2023-03-11T05:55:43.329Z,97709.69
2023-03-11T05:58:09.933Z,97696.03
2023-03-11T06:00:36.912Z,97699.47
2023-03-11T06:03:03.543Z,97698.44
2023-03-11T06:05:30.098Z,97703.56
2023-03-11T06:07:56.599Z,97706.81
2023-03-11T06:10:23.200Z,97712.47
2023-03-11T06:12:49.731Z,97722.50
2023-03-11T06:15:16.367Z,97722.09
2023-03-11T06:17:42.856Z,97725.91
2023-03-11T06:20:10.111Z,97731.44
2023-03-11T06:22:38.410Z,97741.66
2023-03-11T06:25:06.975Z,97742.47
2023-03-11T06:27:33.450Z,97754.88
2023-03-11T06:29:59.953Z,97752.53
2023-03-11T06:32:26.488Z,97758.41
2023-03-11T06:34:53.601Z,97759.16
2023-03-11T06:37:21.098Z,97763.72
2023-03-11T06:39:47.597Z,97767.56
2023-03-11T06:42:14.208Z,97769.81
2023-03-11T06:44:40.749Z,97761.31
2023-03-11T06:47:07.302Z,97766.06
2023-03-11T06:49:33.818Z,97757.38
2023-03-11T06:52:00.327Z,97760.84
2023-03-11T06:54:26.801Z,97765.50
2023-03-11T06:56:53.274Z,97766.97
2023-03-11T06:59:19.861Z,97764.75
2023-03-11T07:01:46.457Z,97759.16
2023-03-11T07:04:13.128Z,97765.69
2023-03-11T07:06:41.830Z,97761.50
2023-03-11T07:09:08.346Z,97763.13
2023-03-11T07:11:34.828Z,97764.31
2023-03-11T07:14:01.404Z,97760.75
2023-03-11T07:16:29.647Z,97768.34
2023-03-11T07:19:01.590Z,97760.38
2023-03-11T07:21:28.992Z,97768.78
2023-03-11T07:23:57.675Z,97766.94
2023-03-11T07:26:25.334Z,97779.16
2023-03-11T07:28:53.814Z,97782.06
2023-03-11T07:31:23.469Z,97789.22
2023-03-11T07:33:50.926Z,97786.38
2023-03-11T07:36:20.026Z,97789.84
2023-03-11T07:38:47.545Z,97789.69
2023-03-11T07:41:16.081Z,97786.06
2023-03-11T07:43:43.591Z,97796.69
2023-03-11T07:46:16.790Z,97806.72
2023-03-11T07:48:43.284Z,97825.13
2023-03-11T07:51:15.232Z,97833.38
2023-03-11T07:53:42.253Z,97833.19
2023-03-11T07:56:10.925Z,97836.78
2023-03-11T07:58:38.122Z,97841.53
2023-03-11T08:01:10.605Z,97839.13
2023-03-11T08:03:38.306Z,97843.06
2023-03-11T08:06:23.014Z,97848.84
2023-03-11T08:08:50.596Z,97847.56
2023-03-11T08:11:17.446Z,97855.56
2023-03-11T08:13:47.148Z,97851.47
2023-03-11T08:16:16.395Z,97857.44
2023-03-11T08:18:43.700Z,97852.91
2023-03-11T08:21:16.032Z,97850.31
2023-03-11T08:23:43.946Z,97857.31
2023-03-11T08:26:13.267Z,97855.06
2023-03-11T08:28:40.288Z,97846.56
2023-03-11T08:31:18.300Z,97852.75
2023-03-11T08:33:46.445Z,97842.69
2023-03-11T08:36:13.404Z,97840.31
2023-03-11T08:38:40.027Z,97842.44
2023-03-11T08:41:06.643Z,97851.41
2023-03-11T08:43:33.998Z,97849.44
2023-03-11T08:46:02.137Z,97855.06
2023-03-11T08:48:29.025Z,97865.16
2023-03-11T08:50:56.229Z,97864.09
2023-03-11T08:53:23.440Z,97864.41
2023-03-11T08:55:51.498Z,97862.41
2023-03-11T08:58:18.884Z,97858.31
2023-03-11T09:00:45.794Z,97861.53
2023-03-11T09:03:13.528Z,97873.16
2023-03-11T09:05:40.146Z,97895.63
2023-03-11T09:08:06.915Z,97891.94
2023-03-11T09:10:33.606Z,97895.03
2023-03-11T09:13:00.106Z,97897.72
2023-03-11T09:15:26.820Z,97912.81
2023-03-11T09:17:54.320Z,97910.25
2023-03-11T09:20:21.136Z,97921.53
2023-03-11T09:22:50.915Z,97924.72
2023-03-11T09:25:17.507Z,97921.53
2023-03-11T09:27:44.028Z,97927.88
2023-03-11T09:30:36.196Z,97928.97
2023-03-11T09:33:07.972Z,97931.09
2023-03-11T09:35:41.560Z,97923.00
2023-03-11T09:38:15.700Z,97927.59
2023-03-11T09:40:55.537Z,97921.16
2023-03-11T09:43:53.362Z,97919.38
2023-03-11T09:46:28.977Z,97922.75
2023-03-11T09:49:03.871Z,97931.16
2023-03-11T09:51:36.078Z,97938.09
2023-03-11T09:54:18.626Z,97947.06
2023-03-11T09:56:45.151Z,97933.94
2023-03-11T09:59:30.152Z,97929.44
2023-03-11T10:01:56.624Z,97938.31
2023-03-11T10:04:57.092Z,97942.59
2023-03-11T10:07:36.813Z,97929.25
2023-03-11T10:10:03.826Z,97934.81
2023-03-11T10:12:42.276Z,97937.44
2023-03-11T10:15:19.165Z,97930.75
2023-03-11T10:18:00.660Z,97930.75
2023-03-11T10:20:32.736Z,97933.81
2023-03-11T10:23:37.024Z,97923.19
2023-03-11T10:26:15.336Z,97923.66
2023-03-11T10:28:51.827Z,97927.63
2023-03-11T10:31:34.878Z,97928.78
2023-03-11T10:34:06.177Z,97924.41
2023-03-11T10:36:40.808Z,97919.88
2023-03-11T10:39:10.798Z,97911.63
2023-03-11T10:41:47.355Z,97915.22
2023-03-11T10:44:23.921Z,97914.41
2023-03-11T10:46:50.434Z,97912.41
2023-03-11T10:49:18.316Z,97905.91
2023-03-11T10:51:50.595Z,97910.66
2023-03-11T10:54:25.305Z,97913.09
2023-03-11T10:56:55.935Z,97898.66
2023-03-11T10:59:29.960Z,97898.41
2023-03-11T11:02:02.578Z,97902.66
2023-03-11T11:04:34.864Z,97904.50
2023-03-11T11:07:35.184Z,97901.53
2023-03-11T11:10:19.995Z,97907.75
2023-03-11T11:12:52.286Z,97899.94
2023-03-11T11:15:30.609Z,97897.84
2023-03-11T11:18:19.712Z,97903.78
2023-03-11T11:20:58.198Z,97903.19
2023-03-11T11:23:27.984Z,97900.44
2023-03-11T11:26:04.815Z,97899.00
2023-03-11T11:28:33.322Z,97901.50
2023-03-11T11:31:20.535Z,97898.34
2023-03-11T11:33:53.452Z,97890.22
2023-03-11T11:36:24.521Z,97898.03
2023-03-11T11:38:53.498Z,97897.50
2023-03-11T11:41:22.768Z,97899.97
2023-03-11T11:43:58.519Z,97900.50
2023-03-11T11:46:38.292Z,97886.19
2023-03-11T11:49:28.981Z,97890.41
2023-03-11T11:52:05.245Z,97879.94
2023-03-11T11:54:57.034Z,97883.66
2023-03-11T11:57:24.557Z,97885.28
2023-03-11T11:59:51.277Z,97896.75
2023-03-11T12:02:34.729Z,97896.63
2023-03-11T12:05:22.314Z,97902.63
2023-03-11T12:07:54.518Z,97898.84
2023-03-11T12:10:37.252Z,97893.09
2023-03-11T12:13:14.021Z,97892.59
2023-03-11T12:16:00.120Z,97882.16
2023-03-11T12:18:36.059Z,97867.03
2023-03-11T12:21:16.735Z,97872.63
2023-03-11T12:23:55.107Z,97869.88
2023-03-11T12:26:24.426Z,97851.16
2023-03-11T12:28:59.438Z,97849.38
2023-03-11T12:31:30.733Z,97856.66
2023-03-11T12:34:03.262Z,97856.91
2023-03-11T12:36:32.134Z,97857.84
2023-03-11T12:39:01.590Z,97852.91
2023-03-11T12:41:39.986Z,97856.75
2023-03-11T12:44:28.906Z,97850.97
2023-03-11T12:47:03.298Z,97854.34
2023-03-11T12:49:35.145Z,97840.16
2023-03-11T12:52:08.601Z,97842.13
2023-03-11T12:54:35.992Z,97846.34
2023-03-11T12:57:05.355Z,97842.97
2023-03-11T13:00:17.571Z,97834.47
2023-03-11T13:03:17.940Z,97832.75
2023-03-11T13:05:44.348Z,97835.66
2023-03-11T13:08:33.696Z,97828.50
2023-03-11T13:11:00.231Z,97836.19
2023-03-11T13:13:32.526Z,97837.88
2023-03-11T13:16:19.421Z,97838.22
2023-03-11T13:18:48.369Z,97838.81
2023-03-11T13:21:27.154Z,97840.03
2023-03-11T13:24:18.498Z,97838.94
2023-03-11T13:27:11.359Z,97839.25
2023-03-11T13:29:57.158Z,97844.06
2023-03-11T13:33:02.761Z,97842.50
2023-03-11T13:35:47.965Z,97833.09
2023-03-11T13:38:37.657Z,97840.31
2023-03-11T13:41:13.512Z,97839.59
2023-03-11T13:43:46.817Z,97840.75
2023-03-11T13:46:38.434Z,97851.06
2023-03-11T13:49:32.858Z,97851.06
2023-03-11T13:52:01.843Z,97851.84
2023-03-11T13:54:35.987Z,97856.06
2023-03-11T13:57:03.680Z,97858.97
2023-03-11T13:59:32.988Z,97858.03
2023-03-11T14:02:03.994Z,97851.56
2023-03-11T14:04:33.696Z,97855.84
2023-03-11T14:07:11.626Z,97852.03
2023-03-11T14:09:38.211Z,97853.09
2023-03-11T14:12:07.753Z,97855.91
2023-03-11T14:14:56.308Z,97857.13
2023-03-11T14:17:22.775Z,97839.06
2023-03-11T14:20:07.013Z,97848.00
2023-03-11T14:22:34.581Z,97852.34
2023-03-11T14:25:08.105Z,97845.63
2023-03-11T14:27:35.281Z,97849.25
2023-03-11T14:30:01.944Z,97848.91
2023-03-11T14:32:34.183Z,97850.19
2023-03-11T14:35:01.247Z,97856.06
2023-03-11T14:37:37.978Z,97861.81
2023-03-11T14:40:39.513Z,97860.81
2023-03-11T14:43:08.131Z,97859.28
2023-03-11T14:45:37.491Z,97851.69
2023-03-11T14:48:14.106Z,97856.78
2023-03-11T14:50:42.649Z,97851.63
2023-03-11T14:53:24.296Z,97860.91
2023-03-11T14:56:09.057Z,97853.16
2023-03-11T14:58:43.838Z,97848.34
2023-03-11T15:01:21.748Z,97854.75
2023-03-11T15:04:15.978Z,97851.91
2023-03-11T15:06:43.970Z,97840.28
2023-03-11T15:09:14.792Z,97844.81
2023-03-11T15:11:55.321Z,97847.72
2023-03-11T15:14:25.896Z,97845.25
2023-03-11T15:16:53.869Z,97850.88
2023-03-11T15:19:29.155Z,97853.59
2023-03-11T15:21:59.506Z,97855.91
2023-03-11T15:24:28.842Z,97859.84
2023-03-11T15:27:07.036Z,97864.47
2023-03-11T15:29:34.973Z,97863.97
2023-03-11T15:32:30.484Z,97862.31
2023-03-11T15:35:21.580Z,97869.25
2023-03-11T15:38:10.558Z,97868.13
2023-03-11T15:40:45.437Z,97873.03
2023-03-11T15:43:15.193Z,97882.91
2023-03-11T15:45:43.428Z,97883.13
2023-03-11T15:48:11.412Z,97887.19
2023-03-11T15:50:53.745Z,97888.75
2023-03-11T15:53:21.690Z,97893.38
2023-03-11T15:55:49.024Z,97893.81
2023-03-11T15:58:18.248Z,97897.31
2023-03-11T16:00:51.713Z,97892.75
2023-03-11T16:03:18.296Z,97893.63
2023-03-11T16:05:45.223Z,97892.91
2023-03-11T16:08:11.973Z,97891.56
2023-03-11T16:10:39.271Z,97888.66
2023-03-11T16:13:06.183Z,97894.97
2023-03-11T16:15:35.735Z,97891.75
2023-03-11T16:18:05.073Z,97891.06
2023-03-11T16:20:36.891Z,97894.66
2023-03-11T16:23:03.992Z,97899.63
2023-03-11T16:25:36.160Z,97899.09
2023-03-11T16:28:03.715Z,97909.22
2023-03-11T16:30:32.575Z,97905.91
2023-03-11T16:32:59.436Z,97911.63
2023-03-11T16:35:27.567Z,97912.84
2023-03-11T16:37:54.274Z,97911.72
2023-03-11T16:40:25.777Z,97910.00
2023-03-11T16:42:57.639Z,97906.06
2023-03-11T16:45:24.211Z,97915.09
2023-03-11T16:47:50.691Z,97912.09
2023-03-11T16:50:17.277Z,97922.19
2023-03-11T16:52:43.826Z,97922.25
2023-03-11T16:55:10.636Z,97924.94
2023-03-11T16:57:38.791Z,97924.94
2023-03-11T17:00:07.027Z,97929.38
2023-03-11T17:02:33.745Z,97931.22
2023-03-11T17:05:00.320Z,97941.78
2023-03-11T17:07:27.255Z,97939.75
2023-03-11T17:09:53.797Z,97946.63
2023-03-11T17:12:20.614Z,97949.75
2023-03-11T17:14:47.180Z,97950.81
2023-03-11T17:17:13.784Z,97951.50
2023-03-11T17:19:40.325Z,97955.94
2023-03-11T17:22:06.885Z,97956.41
2023-03-11T17:24:34.316Z,97964.81
2023-03-11T17:27:00.803Z,97970.16
2023-03-11T17:29:27.338Z,97968.97
2023-03-11T17:31:53.874Z,97973.06
2023-03-11T17:34:20.949Z,97962.69
2023-03-11T17:36:47.530Z,97962.94
2023-03-11T17:39:14.160Z,97969.44
2023-03-11T17:41:40.965Z,97968.97
2023-03-11T17:44:07.671Z,97978.72
2023-03-11T17:46:36.351Z,97972.25
2023-03-11T17:49:03.035Z,97976.44
2023-03-11T17:51:29.577Z,97977.38
2023-03-11T17:53:56.354Z,97968.78
2023-03-11T17:56:23.393Z,97975.28
2023-03-11T17:58:50.624Z,97982.94
2023-03-11T18:01:20.564Z,97990.03
2023-03-11T18:03:47.590Z,97993.28
2023-03-11T18:06:14.913Z,97989.34
2023-03-11T18:08:41.574Z,97984.94
2023-03-11T18:11:10.928Z,97989.22
2023-03-11T18:13:38.549Z,97995.03
2023-03-11T18:16:12.245Z,98004.88
2023-03-11T18:18:39.518Z,98008.69
2023-03-11T18:21:08.894Z,98016.84
2023-03-11T18:23:35.717Z,98009.75
2023-03-11T18:26:05.296Z,97998.03
2023-03-11T18:28:31.965Z,98003.75
2023-03-11T18:31:06.014Z,98004.63
2023-03-11T18:33:32.545Z,98010.09
2023-03-11T18:35:59.046Z,98020.59
2023-03-11T18:38:26.345Z,98020.66
2023-03-11T18:40:58.818Z,98019.84
2023-03-11T18:43:25.272Z,98028.44
2023-03-11T18:45:51.757Z,98021.03
2023-03-11T18:48:18.279Z,98021.13
2023-03-11T18:50:51.875Z,98032.50
2023-03-11T18:53:19.008Z,98039.25
2023-03-11T18:55:45.501Z,98038.66
2023-03-11T18:58:11.978Z,98040.75
2023-03-11T19:00:38.444Z,98044.59
2023-03-11T19:03:05.006Z,98043.41
2023-03-11T19:05:31.459Z,98043.34
2023-03-11T19:07:57.916Z,98053.34
2023-03-11T19:10:24.796Z,98058.47
2023-03-11T19:12:51.667Z,98059.97
2023-03-11T19:15:18.296Z,98063.56
2023-03-11T19:17:51.715Z,98063.34
2023-03-11T19:20:22.738Z,98074.69
2023-03-11T19:22:49.590Z,98065.59
2023-03-11T19:25:16.303Z,98072.13
2023-03-11T19:27:42.745Z,98077.22
2023-03-11T19:30:09.863Z,98084.75
2023-03-11T19:32:36.518Z,98081.84
2023-03-11T19:35:03.162Z,98088.34
2023-03-11T19:37:30.538Z,98085.94
2023-03-11T19:39:57.045Z,98095.78
2023-03-11T19:42:23.576Z,98095.34
2023-03-11T19:44:50.367Z,98096.75
2023-03-11T19:47:16.929Z,98094.63
2023-03-11T19:49:44.286Z,98096.03
2023-03-11T19:52:11.199Z,98095.25
2023-03-11T19:54:37.704Z,98100.22
2023-03-11T19:57:04.336Z,98099.16
2023-03-11T19:59:31.609Z,98097.25
2023-03-11T20:01:58.350Z,98098.22
2023-03-11T20:04:24.948Z,98105.44
2023-03-11T20:06:51.971Z,98104.75
2023-03-11T20:09:19.026Z,98110.03
2023-03-11T20:11:45.733Z,98108.84
2023-03-11T20:14:13.094Z,98103.28
2023-03-11T20:16:40.160Z,98106.75
2023-03-11T20:19:07.447Z,98104.91
2023-03-11T20:21:38.931Z,98112.22
2023-03-11T20:24:05.705Z,98107.31
2023-03-11T20:26:32.533Z,98109.72
2023-03-11T20:28:59.681Z,98110.44
2023-03-11T20:31:27.502Z,98114.28
2023-03-11T20:33:54.914Z,98116.16
2023-03-11T20:36:24.045Z,98116.97
2023-03-11T20:38:52.915Z,98109.50
2023-03-11T20:41:20.817Z,98124.38
2023-03-11T20:43:47.802Z,98118.31
2023-03-11T20:46:14.659Z,98127.56
2023-03-11T20:48:41.277Z,98121.97
2023-03-11T20:51:11.703Z,98127.28
2023-03-11T20:53:39.348Z,98133.84
2023-03-11T20:56:09.367Z,98133.03
2023-03-11T20:58:36.525Z,98128.16
2023-03-11T21:01:19.235Z,98123.44
2023-03-11T21:03:46.212Z,98130.97
2023-03-11T21:06:21.581Z,98135.63
2023-03-11T21:08:48.770Z,98132.44
2023-03-11T21:11:16.524Z,98135.81
2023-03-11T21:13:43.066Z,98138.25
2023-03-11T21:16:10.116Z,98136.81
2023-03-11T21:18:37.425Z,98140.13
2023-03-11T21:21:08.312Z,98137.38
2023-03-11T21:23:35.848Z,98142.88
2023-03-11T21:26:04.752Z,98146.19
2023-03-11T21:28:33.133Z,98150.69
2023-03-11T21:31:04.490Z,98138.97
2023-03-11T21:33:31.687Z,98148.34
2023-03-11T21:36:00.292Z,98148.06
2023-03-11T21:38:27.845Z,98150.28
2023-03-11T21:41:04.190Z,98150.16
2023-03-11T21:43:30.701Z,98160.38
2023-03-11T21:45:57.272Z,98166.28
2023-03-11T21:48:23.916Z,98169.72
2023-03-11T21:50:51.787Z,98169.56
2023-03-11T21:53:18.598Z,98178.16
2023-03-11T21:55:47.062Z,98173.72
2023-03-11T21:58:14.869Z,98182.31
2023-03-11T22:00:41.663Z,98186.03
2023-03-11T22:03:08.320Z,98186.72
2023-03-11T22:05:36.110Z,98188.72
2023-03-11T22:08:02.761Z,98188.19
2023-03-11T22:10:31.735Z,98191.06
2023-03-11T22:12:58.729Z,98199.06
2023-03-11T22:15:25.299Z,98199.41
2023-03-11T22:17:51.901Z,98192.28
2023-03-11T22:20:18.749Z,98200.28
2023-03-11T22:22:45.334Z,98191.97
2023-03-11T22:25:11.985Z,98187.19
2023-03-11T22:27:40.269Z,98194.69
2023-03-11T22:30:08.103Z,98192.53
2023-03-11T22:32:35.261Z,98199.16
2023-03-11T22:35:01.858Z,98200.44
2023-03-11T22:37:28.629Z,98197.31
2023-03-11T22:39:55.200Z,98205.09
2023-03-11T22:42:21.683Z,98205.69
2023-03-11T22:44:48.137Z,98204.56
2023-03-11T22:47:14.648Z,98208.44
2023-03-11T22:49:41.165Z,98210.28
2023-03-11T22:52:07.708Z,98212.56
2023-03-11T22:54:34.240Z,98214.66
2023-03-11T22:57:00.926Z,98214.06
2023-03-11T22:59:30.586Z,98224.00
2023-03-11T23:01:57.138Z,98218.66
2023-03-11T23:04:23.936Z,98223.53
2023-03-11T23:06:50.469Z,98230.16
2023-03-11T23:09:17.028Z,98237.22
2023-03-11T23:11:43.480Z,98229.41
2023-03-11T23:14:09.994Z,98228.22
2023-03-11T23:16:36.707Z,98231.28
2023-03-11T23:19:03.290Z,98227.72
2023-03-11T23:21:32.586Z,98228.31
2023-03-11T23:24:00.713Z,98233.56
2023-03-11T23:26:28.447Z,98233.56
2023-03-11T23:28:55.114Z,98226.56
2023-03-11T23:31:23.474Z,98237.50
2023-03-11T23:33:50.540Z,98230.38
2023-03-11T23:36:20.177Z,98229.84
2023-03-11T23:38:53.387Z,98226.38
2023-03-11T23:41:21.111Z,98224.44
2023-03-11T23:43:47.931Z,98220.59
2023-03-11T23:46:15.240Z,98217.91
2023-03-11T23:48:41.939Z,98218.38
2023-03-11T23:51:09.392Z,98217.28
2023-03-11T23:53:43.695Z,98218.81
2023-03-11T23:56:13.754Z,98215.41
2023-03-11T23:58:41.033Z,98212.88
